createdAt,value
2023-05-12T00:01:46.119Z,4.82
2023-05-12T00:04:13.248Z,7.72
2023-05-12T00:06:40.286Z,3.20
2023-05-12T00:09:08.059Z,4.47
2023-05-12T00:11:35.214Z,4.20
2023-05-12T00:14:02.541Z,4.22
2023-05-12T00:16:30.099Z,4.30
2023-05-12T00:18:57.209Z,4.25
2023-05-12T00:21:24.374Z,3.05
2023-05-12T00:23:51.473Z,3.78
2023-05-12T00:26:18.486Z,4.63
2023-05-12T00:28:45.996Z,5.25
2023-05-12T00:31:13.011Z,4.95
2023-05-12T00:33:40.199Z,2.97
2023-05-12T00:36:08.238Z,4.15
2023-05-12T00:38:37.489Z,5.68
2023-05-12T00:41:05.032Z,3.72
2023-05-12T00:43:32.298Z,5.32
2023-05-12T00:46:00.650Z,4.57
2023-05-12T00:48:27.778Z,5.85
2023-05-12T00:50:55.730Z,7.35
2023-05-12T00:53:22.794Z,6.03
2023-05-12T00:55:50.130Z,8.38
2023-05-12T00:58:17.856Z,7.43
2023-05-12T01:00:47.508Z,6.70
2023-05-12T01:03:15.270Z,5.05
2023-05-12T01:05:49.815Z,5.00
2023-05-12T01:08:18.840Z,4.78
2023-05-12T01:10:46.970Z,5.95
2023-05-12T01:13:14.968Z,6.28
2023-05-12T01:15:47.994Z,5.95
2023-05-12T01:18:19.601Z,6.13
2023-05-12T01:20:48.907Z,5.75
2023-05-12T01:23:19.750Z,5.10
2023-05-12T01:25:51.420Z,5.10
2023-05-12T01:28:19.732Z,7.60
2023-05-12T01:30:48.554Z,9.27
2023-05-12T01:33:16.416Z,6.05
2023-05-12T01:35:44.377Z,5.18
2023-05-12T01:38:11.749Z,5.65
2023-05-12T01:40:38.884Z,6.30
2023-05-12T01:43:06.833Z,4.47
2023-05-12T01:45:34.381Z,7.93
2023-05-12T01:48:02.252Z,6.25
2023-05-12T01:50:31.486Z,6.35
2023-05-12T01:52:59.462Z,7.63
2023-05-12T01:55:26.780Z,7.07
2023-05-12T01:57:55.296Z,8.02
2023-05-12T02:00:27.378Z,6.70
2023-05-12T02:02:55.497Z,9.40
2023-05-12T02:05:23.951Z,8.15
2023-05-12T02:07:52.279Z,9.73
2023-05-12T02:10:24.689Z,10.02
2023-05-12T02:12:53.410Z,8.40
2023-05-12T02:15:22.110Z,11.13
2023-05-12T02:17:51.521Z,9.90
2023-05-12T02:20:19.183Z,11.98
2023-05-12T02:22:46.969Z,12.55
2023-05-12T02:25:14.139Z,16.95
2023-05-12T02:27:42.482Z,16.65
2023-05-12T02:30:10.538Z,16.48
2023-05-12T02:32:38.943Z,16.40
2023-05-12T02:35:07.493Z,16.88
2023-05-12T02:37:35.665Z,25.92
2023-05-12T02:40:03.350Z,15.52
2023-05-12T02:42:35.855Z,14.65
2023-05-12T02:45:04.164Z,14.88
2023-05-12T02:47:33.377Z,20.27
2023-05-12T02:50:00.756Z,20.85
2023-05-12T02:52:28.418Z,20.52
2023-05-12T02:54:56.662Z,17.50
2023-05-12T02:57:24.678Z,17.38
2023-05-12T02:59:52.354Z,17.17
2023-05-12T03:02:19.642Z,16.98
2023-05-12T03:04:47.027Z,25.55
2023-05-12T03:07:14.148Z,16.55
2023-05-12T03:09:43.789Z,14.40
2023-05-12T03:12:11.050Z,23.02
2023-05-12T03:14:38.525Z,15.85
2023-05-12T03:17:05.805Z,16.70
2023-05-12T03:19:33.063Z,17.65
2023-05-12T03:22:00.422Z,17.27
2023-05-12T03:24:27.865Z,15.57
2023-05-12T03:26:55.555Z,16.98
2023-05-12T03:29:23.021Z,16.02
2023-05-12T03:31:50.119Z,16.42
2023-05-12T03:34:17.490Z,15.55
2023-05-12T03:36:44.654Z,20.85
2023-05-12T03:39:12.697Z,16.25
2023-05-12T03:41:40.054Z,19.25
2023-05-12T03:44:09.098Z,17.98
2023-05-12T03:46:36.373Z,16.23
2023-05-12T03:49:03.807Z,18.45
2023-05-12T03:51:31.572Z,18.83
2023-05-12T03:53:59.123Z,17.15
2023-05-12T03:56:26.498Z,19.65
2023-05-12T03:58:53.682Z,22.27
2023-05-12T04:01:21.888Z,22.10
2023-05-12T04:03:49.453Z,23.55
2023-05-12T04:06:16.831Z,34.67
2023-05-12T04:08:44.044Z,22.25
2023-05-12T04:11:11.653Z,21.73
2023-05-12T04:13:39.243Z,22.23
2023-05-12T04:16:06.702Z,23.17
2023-05-12T04:18:36.291Z,23.65
2023-05-12T04:21:03.701Z,20.83
2023-05-12T04:23:31.701Z,23.00
2023-05-12T04:25:59.303Z,26.15
2023-05-12T04:28:26.447Z,20.33
2023-05-12T04:30:55.905Z,22.50
2023-05-12T04:33:23.249Z,21.55
2023-05-12T04:35:55.888Z,18.77
2023-05-12T04:38:23.354Z,20.63
2023-05-12T04:40:50.689Z,20.83
2023-05-12T04:45:48.390Z,17.10
2023-05-12T04:48:15.641Z,17.13
2023-05-12T04:50:42.982Z,20.48
2023-05-12T04:53:11.490Z,16.88
2023-05-12T04:55:39.182Z,20.42
2023-05-12T04:58:06.527Z,14.25
2023-05-12T05:00:34.064Z,17.10
2023-05-12T05:03:01.821Z,20.50
2023-05-12T05:05:29.194Z,14.20
2023-05-12T05:07:56.354Z,18.77
2023-05-12T05:10:23.615Z,17.45
2023-05-12T05:12:50.662Z,16.02
2023-05-12T05:15:17.923Z,19.77
2023-05-12T05:17:49.759Z,19.25
2023-05-12T05:20:19.717Z,14.02
2023-05-12T05:22:47.370Z,15.90
2023-05-12T05:25:15.700Z,12.95
2023-05-12T05:27:43.258Z,14.57
2023-05-12T05:30:11.634Z,15.70
2023-05-12T05:32:40.804Z,14.70
2023-05-12T05:35:09.065Z,17.88
2023-05-12T05:37:36.584Z,13.90
2023-05-12T05:40:05.820Z,17.58
2023-05-12T05:42:34.930Z,12.27
2023-05-12T05:45:03.788Z,15.27
2023-05-12T05:47:32.964Z,16.33
2023-05-12T05:50:02.168Z,12.38
2023-05-12T05:52:30.475Z,17.67
2023-05-12T05:54:58.924Z,20.25
2023-05-12T05:57:28.780Z,13.57
2023-05-12T05:59:56.591Z,15.00
2023-05-12T06:02:24.266Z,15.07
2023-05-12T06:04:55.550Z,14.32
2023-05-12T06:07:24.176Z,13.85
2023-05-12T06:09:57.692Z,14.98
2023-05-12T06:12:26.875Z,12.93
2023-05-12T06:14:55.339Z,12.35
2023-05-12T06:17:32.662Z,14.25
2023-05-12T06:20:23.600Z,13.32
2023-05-12T06:22:56.930Z,13.23
2023-05-12T06:25:25.764Z,11.98
2023-05-12T06:27:53.594Z,10.77
2023-05-12T06:30:23.558Z,10.68
2023-05-12T06:32:53.582Z,11.43
2023-05-12T06:35:25.836Z,9.48
2023-05-12T06:37:55.308Z,10.45
2023-05-12T06:40:28.526Z,9.10
2023-05-12T06:42:56.372Z,6.22
2023-05-12T06:45:29.308Z,8.40
2023-05-12T06:50:34.645Z,5.93
2023-05-12T06:53:08.675Z,5.47
2023-05-12T06:55:35.995Z,6.13
2023-05-12T06:58:03.614Z,4.93
2023-05-12T07:00:31.084Z,5.13
2023-05-12T07:02:58.244Z,5.28
2023-05-12T07:05:25.584Z,6.10
2023-05-12T07:07:52.970Z,3.03
2023-05-12T07:10:21.472Z,4.15
2023-05-12T07:12:48.632Z,3.10
2023-05-12T07:15:15.754Z,4.70
2023-05-12T07:17:42.929Z,5.15
2023-05-12T07:20:10.379Z,3.70
2023-05-12T07:22:39.033Z,7.10
2023-05-12T07:25:08.064Z,5.43
2023-05-12T07:27:35.534Z,5.10
2023-05-12T07:30:03.077Z,4.90
2023-05-12T07:32:30.387Z,2.40
2023-05-12T07:34:58.194Z,3.17
2023-05-12T07:37:27.455Z,5.70
2023-05-12T07:39:54.623Z,4.25
2023-05-12T07:42:22.896Z,2.22
2023-05-12T07:44:50.215Z,3.55
2023-05-12T07:47:17.461Z,3.20
2023-05-12T07:49:47.170Z,4.10
2023-05-12T07:52:14.556Z,6.80
2023-05-12T07:54:41.696Z,6.18
2023-05-12T07:57:08.881Z,5.55
2023-05-12T07:59:36.316Z,4.72
2023-05-12T08:02:03.769Z,2.85
2023-05-12T08:04:31.463Z,3.67
2023-05-12T08:06:59.677Z,4.20
2023-05-12T08:09:27.067Z,3.08
2023-05-12T08:11:54.935Z,4.22
2023-05-12T08:14:22.992Z,3.35
2023-05-12T08:16:50.296Z,5.85
2023-05-12T08:19:17.614Z,4.82
2023-05-12T08:21:45.051Z,3.22
2023-05-12T08:24:12.181Z,1.45
2023-05-12T08:26:39.321Z,4.72
2023-05-12T08:29:07.295Z,8.70
2023-05-12T08:31:34.630Z,3.55
2023-05-12T08:34:09.885Z,4.75
2023-05-12T08:36:38.865Z,3.13
2023-05-12T08:39:06.461Z,2.13
2023-05-12T08:41:45.135Z,4.97
2023-05-12T08:44:13.574Z,4.10
2023-05-12T08:46:41.319Z,7.72
2023-05-12T08:49:12.924Z,7.10
2023-05-12T08:51:42.474Z,2.53
2023-05-12T08:54:11.029Z,5.00
2023-05-12T08:59:10.814Z,3.30
2023-05-12T09:01:43.206Z,2.22
2023-05-12T09:04:10.713Z,3.67
2023-05-12T09:06:38.054Z,3.45
2023-05-12T09:09:05.442Z,3.85
2023-05-12T09:11:32.706Z,2.95
2023-05-12T09:14:10.934Z,2.88
2023-05-12T09:16:44.041Z,3.58
2023-05-12T09:19:11.444Z,3.10
2023-05-12T09:21:39.024Z,2.35
2023-05-12T09:24:08.190Z,3.22
2023-05-12T09:26:46.229Z,1.92
2023-05-12T09:29:23.979Z,7.88
2023-05-12T09:31:59.427Z,3.83
2023-05-12T09:34:31.035Z,4.95
2023-05-12T09:37:05.897Z,1.93
2023-05-12T09:39:33.645Z,1.90
2023-05-12T09:42:00.861Z,5.10
2023-05-12T09:44:29.769Z,2.53
2023-05-12T09:47:06.810Z,5.18
2023-05-12T09:49:33.984Z,5.03
2023-05-12T09:52:01.180Z,2.63
2023-05-12T09:54:29.885Z,4.60
2023-05-12T09:57:04.642Z,2.97
2023-05-12T09:59:34.190Z,2.63
2023-05-12T10:02:05.120Z,3.58
2023-05-12T10:04:40.571Z,3.05
2023-05-12T10:07:15.158Z,5.20
2023-05-12T10:09:44.757Z,2.10
2023-05-12T10:12:12.295Z,3.15
2023-05-12T10:14:39.537Z,2.70
2023-05-12T10:17:10.464Z,1.67
2023-05-12T10:19:39.174Z,4.63
2023-05-12T10:22:08.334Z,1.42
2023-05-12T10:24:36.981Z,5.47
2023-05-12T10:27:06.998Z,2.88
2023-05-12T10:29:35.539Z,2.28
2023-05-12T10:32:02.912Z,3.15
2023-05-12T10:34:33.760Z,5.55
2023-05-12T10:37:14.006Z,2.55
2023-05-12T10:39:51.996Z,4.43
2023-05-12T10:42:26.237Z,2.67
2023-05-12T10:44:55.092Z,3.05
2023-05-12T10:47:36.717Z,2.50
2023-05-12T10:50:04.076Z,2.63
2023-05-12T10:52:31.263Z,1.75
2023-05-12T10:55:03.285Z,2.40
2023-05-12T10:57:32.349Z,1.98
2023-05-12T11:00:02.251Z,5.28
2023-05-12T11:02:34.673Z,3.47
2023-05-12T11:05:17.301Z,1.30
2023-05-12T11:07:50.884Z,3.40
2023-05-12T11:10:20.193Z,4.18
2023-05-12T11:12:50.131Z,2.28
2023-05-12T11:15:18.260Z,1.60
2023-05-12T11:17:46.906Z,3.20
2023-05-12T11:20:27.618Z,3.80
2023-05-12T11:22:57.163Z,2.97
2023-05-12T11:25:29.884Z,4.20
2023-05-12T11:27:57.207Z,2.47
2023-05-12T11:30:24.462Z,3.70
2023-05-12T11:33:02.092Z,2.40
2023-05-12T11:35:32.657Z,2.28
2023-05-12T11:37:59.915Z,1.17
2023-05-12T11:40:27.677Z,4.32
2023-05-12T11:42:56.619Z,3.00
2023-05-12T11:45:28.042Z,1.25
2023-05-12T11:48:08.176Z,2.17
2023-05-12T11:50:39.581Z,1.02
2023-05-12T11:53:11.676Z,1.73
2023-05-12T11:55:47.813Z,2.80
2023-05-12T11:58:22.394Z,2.92
2023-05-12T12:00:50.172Z,2.25
2023-05-12T12:03:17.849Z,1.63
2023-05-12T12:05:57.525Z,2.10
2023-05-12T12:08:25.064Z,1.65
2023-05-12T12:10:52.260Z,0.68
2023-05-12T12:13:22.758Z,3.28
2023-05-12T12:15:53.078Z,2.72
2023-05-12T12:18:20.583Z,3.17
2023-05-12T12:20:48.245Z,1.67
2023-05-12T12:23:15.715Z,2.03
2023-05-12T12:25:44.019Z,0.55
2023-05-12T12:28:11.526Z,1.95
2023-05-12T12:30:41.881Z,1.02
2023-05-12T12:33:09.274Z,2.30
2023-05-12T12:35:36.454Z,0.65
2023-05-12T12:38:03.678Z,3.08
2023-05-12T12:40:31.562Z,1.95
2023-05-12T12:43:01.807Z,3.47
2023-05-12T12:45:31.322Z,0.73
2023-05-12T12:47:58.481Z,2.25
2023-05-12T12:50:27.328Z,3.15
2023-05-12T12:52:54.702Z,2.33
2023-05-12T12:55:22.402Z,2.83
2023-05-12T12:57:51.462Z,2.22
2023-05-12T13:00:19.991Z,2.70
2023-05-12T13:02:47.898Z,5.05
2023-05-12T13:05:16.817Z,2.67
2023-05-12T13:07:44.177Z,5.90
2023-05-12T13:10:12.643Z,3.15
2023-05-12T13:12:39.962Z,3.92
2023-05-12T13:15:08.001Z,3.05
2023-05-12T13:17:35.317Z,10.95
2023-05-12T13:20:03.143Z,3.83
2023-05-12T13:22:30.672Z,13.50
2023-05-12T13:24:58.091Z,3.47
2023-05-12T13:27:25.512Z,6.38
2023-05-12T13:29:53.193Z,3.50
2023-05-12T13:32:21.439Z,4.22
2023-05-12T13:34:48.955Z,3.47
2023-05-12T13:37:17.132Z,5.82
2023-05-12T13:39:44.577Z,4.22
2023-05-12T13:42:11.795Z,4.30
2023-05-12T13:44:39.049Z,4.55
2023-05-12T13:47:09.370Z,3.08
2023-05-12T13:49:37.435Z,5.85
2023-05-12T13:52:05.388Z,5.75
2023-05-12T13:54:32.890Z,7.40
2023-05-12T13:57:04.661Z,5.57
2023-05-12T13:59:32.469Z,5.93
2023-05-12T14:02:00.239Z,6.10
2023-05-12T14:04:27.959Z,6.25
2023-05-12T14:06:55.959Z,8.98
2023-05-12T14:09:23.702Z,7.93
2023-05-12T14:11:51.069Z,8.98
2023-05-12T14:14:18.708Z,9.27
2023-05-12T14:16:46.537Z,13.15
2023-05-12T14:19:14.038Z,13.00
2023-05-12T14:21:41.908Z,7.82
2023-05-12T14:24:10.568Z,9.32
2023-05-12T14:26:38.212Z,9.43
2023-05-12T14:29:06.964Z,9.73
2023-05-12T14:31:36.512Z,10.10
2023-05-12T14:34:04.911Z,12.55
2023-05-12T14:36:32.756Z,11.70
2023-05-12T14:39:00.112Z,10.77
2023-05-12T14:41:27.734Z,11.65
2023-05-12T14:43:55.516Z,11.98
2023-05-12T14:46:26.516Z,13.43
2023-05-12T14:48:53.850Z,10.95
2023-05-12T14:51:21.264Z,12.02
2023-05-12T14:53:49.179Z,12.88
2023-05-12T14:56:16.721Z,13.13
2023-05-12T14:58:45.828Z,15.10
2023-05-12T15:01:13.430Z,11.75
2023-05-12T15:03:40.867Z,10.43
2023-05-12T15:06:08.742Z,13.73
2023-05-12T15:08:36.499Z,12.82
2023-05-12T15:11:03.910Z,25.63
2023-05-12T15:13:32.478Z,16.75
2023-05-12T15:15:59.794Z,12.55
2023-05-12T15:18:27.279Z,14.05
2023-05-12T15:20:54.752Z,13.45
2023-05-12T15:23:22.685Z,11.40
2023-05-12T15:25:50.139Z,13.35
2023-05-12T15:28:17.810Z,10.98
2023-05-12T15:30:46.131Z,12.13
2023-05-12T15:33:13.485Z,11.70
2023-05-12T15:35:41.108Z,13.20
2023-05-12T15:38:08.683Z,12.32
2023-05-12T15:40:35.819Z,8.82
2023-05-12T15:43:03.554Z,10.13
2023-05-12T15:45:31.828Z,14.70
2023-05-12T15:47:59.366Z,10.48
2023-05-12T15:50:26.741Z,13.15
2023-05-12T15:52:54.094Z,12.05
2023-05-12T15:55:21.604Z,15.05
2023-05-12T15:57:54.041Z,11.07
2023-05-12T16:00:23.123Z,13.95
2023-05-12T16:02:50.566Z,15.13
2023-05-12T16:05:18.305Z,13.95
2023-05-12T16:07:46.987Z,12.85
2023-05-12T16:10:14.465Z,11.07
2023-05-12T16:12:41.846Z,12.95
2023-05-12T16:15:10.188Z,12.15
2023-05-12T16:17:37.513Z,13.40
2023-05-12T16:20:05.591Z,14.82
2023-05-12T16:22:33.083Z,14.35
2023-05-12T16:25:00.517Z,13.27
2023-05-12T16:27:28.189Z,16.17
2023-05-12T16:29:56.074Z,15.15
2023-05-12T16:32:23.863Z,12.60
2023-05-12T16:34:51.438Z,12.45
2023-05-12T16:37:18.625Z,14.50
2023-05-12T16:39:45.976Z,20.45
2023-05-12T16:42:13.775Z,17.58
2023-05-12T16:44:41.109Z,18.02
2023-05-12T16:47:11.598Z,18.95
2023-05-12T16:49:39.049Z,14.23
2023-05-12T16:52:07.114Z,16.90
2023-05-12T16:54:34.465Z,20.10
2023-05-12T16:57:03.370Z,17.27
2023-05-12T16:59:32.808Z,16.17
2023-05-12T17:02:00.532Z,13.77
2023-05-12T17:04:27.983Z,15.55
2023-05-12T17:06:55.313Z,20.25
2023-05-12T17:09:23.661Z,19.60
2023-05-12T17:11:51.025Z,18.33
2023-05-12T17:14:21.585Z,20.42
2023-05-12T17:16:49.717Z,21.98
2023-05-12T17:19:17.195Z,18.05
2023-05-12T17:21:44.642Z,18.55
2023-05-12T17:24:12.026Z,12.98
2023-05-12T17:26:39.423Z,15.45
2023-05-12T17:29:07.017Z,15.77
2023-05-12T17:31:34.659Z,15.10
2023-05-12T17:34:02.168Z,15.55
2023-05-12T17:36:29.467Z,21.58
2023-05-12T17:38:57.103Z,20.02
2023-05-12T17:41:25.456Z,12.23
2023-05-12T17:43:54.570Z,14.52
2023-05-12T17:46:24.650Z,15.13
2023-05-12T17:48:52.314Z,17.85
2023-05-12T17:51:19.810Z,16.30
2023-05-12T17:53:47.283Z,15.02
2023-05-12T17:56:14.867Z,15.75
2023-05-12T17:58:42.625Z,15.50
2023-05-12T18:01:10.274Z,15.50
2023-05-12T18:03:38.589Z,16.33
2023-05-12T18:06:06.155Z,11.85
2023-05-12T18:08:33.632Z,15.85
2023-05-12T18:11:00.945Z,18.35
2023-05-12T18:13:28.390Z,16.52
2023-05-12T18:15:55.834Z,16.02
2023-05-12T18:18:23.159Z,17.45
2023-05-12T18:20:50.546Z,21.25
2023-05-12T18:23:17.754Z,16.20
2023-05-12T18:25:45.112Z,18.45
2023-05-12T18:28:12.862Z,12.23
2023-05-12T18:30:40.440Z,15.82
2023-05-12T18:33:08.149Z,15.25
2023-05-12T18:35:35.611Z,20.20
2023-05-12T18:38:02.994Z,18.40
2023-05-12T18:40:33.352Z,19.35
2023-05-12T18:43:00.879Z,13.32
2023-05-12T18:45:28.146Z,23.85
2023-05-12T18:47:55.554Z,18.92
2023-05-12T18:50:22.893Z,22.33
2023-05-12T18:52:50.155Z,17.70
2023-05-12T18:55:17.755Z,20.17
2023-05-12T18:57:45.476Z,20.00
2023-05-12T19:00:13.802Z,19.17
2023-05-12T19:02:42.733Z,19.55
2023-05-12T19:05:10.242Z,19.50
2023-05-12T19:07:37.698Z,17.63
2023-05-12T19:10:05.610Z,21.90
2023-05-12T19:12:33.026Z,17.05
2023-05-12T19:15:00.270Z,16.33
2023-05-12T19:17:30.013Z,14.18
2023-05-12T19:19:57.423Z,20.20
2023-05-12T19:22:26.413Z,17.88
2023-05-12T19:24:53.900Z,15.90
2023-05-12T19:27:21.107Z,16.48
2023-05-12T19:29:48.566Z,16.15
2023-05-12T19:32:16.844Z,19.63
2023-05-12T19:34:45.223Z,20.85
2023-05-12T19:37:12.664Z,19.25
2023-05-12T19:39:39.822Z,17.85
2023-05-12T19:42:07.215Z,20.00
2023-05-12T19:44:34.561Z,17.60
2023-05-12T19:47:06.102Z,21.58
2023-05-12T19:49:34.919Z,14.57
2023-05-12T19:52:03.109Z,15.15
2023-05-12T19:54:31.186Z,14.15
2023-05-12T19:57:00.190Z,18.17
2023-05-12T19:59:27.375Z,14.75
2023-05-12T20:01:54.706Z,20.30
2023-05-12T20:04:21.958Z,14.95
2023-05-12T20:06:49.432Z,19.25
2023-05-12T20:09:16.686Z,20.67
2023-05-12T20:11:43.813Z,20.70
2023-05-12T20:14:11.113Z,20.90
2023-05-12T20:16:38.632Z,16.95
2023-05-12T20:19:05.958Z,16.58
2023-05-12T20:21:33.152Z,17.80
2023-05-12T20:24:02.865Z,19.50
2023-05-12T20:26:31.032Z,20.98
2023-05-12T20:28:59.856Z,21.15
2023-05-12T20:31:27.949Z,26.88
2023-05-12T20:33:57.680Z,17.88
2023-05-12T20:36:24.976Z,23.55
2023-05-12T20:38:52.215Z,25.52
2023-05-12T20:41:19.851Z,19.45
2023-05-12T20:43:47.002Z,18.00
2023-05-12T20:46:14.310Z,18.33
2023-05-12T20:48:41.586Z,22.17
2023-05-12T20:51:12.846Z,20.52
2023-05-12T20:53:40.235Z,18.38
2023-05-12T20:56:08.627Z,24.65
2023-05-12T20:58:36.638Z,16.08
2023-05-12T21:01:04.660Z,20.17
2023-05-12T21:03:33.692Z,20.45
2023-05-12T21:06:01.327Z,21.98
2023-05-12T21:08:28.625Z,23.90
2023-05-12T21:10:56.141Z,19.08
2023-05-12T21:13:23.353Z,31.65
2023-05-12T21:15:50.618Z,19.50
2023-05-12T21:18:17.701Z,16.77
2023-05-12T21:20:44.995Z,17.23
2023-05-12T21:23:13.631Z,19.30
2023-05-12T21:25:40.784Z,17.90
2023-05-12T21:28:07.979Z,16.83
2023-05-12T21:30:37.357Z,16.10
2023-05-12T21:33:05.953Z,16.88
2023-05-12T21:35:33.331Z,20.95
2023-05-12T21:38:02.945Z,16.88
2023-05-12T21:40:30.396Z,17.65
2023-05-12T21:42:57.801Z,22.67
2023-05-12T21:45:27.388Z,17.77
2023-05-12T21:47:54.664Z,12.73
2023-05-12T21:50:22.344Z,16.92
2023-05-12T21:52:50.528Z,19.25
2023-05-12T21:55:17.929Z,21.85
2023-05-12T21:57:45.745Z,21.95
2023-05-12T22:00:15.346Z,15.18
2023-05-12T22:02:42.626Z,14.43
2023-05-12T22:05:10.134Z,16.83
2023-05-12T22:07:37.356Z,19.13
2023-05-12T22:10:05.174Z,15.57
2023-05-12T22:12:32.329Z,14.65
2023-05-12T22:14:59.969Z,13.82
2023-05-12T22:17:27.293Z,19.45
2023-05-12T22:19:54.518Z,19.25
2023-05-12T22:22:21.581Z,17.13
2023-05-12T22:24:48.696Z,19.98
2023-05-12T22:27:21.774Z,15.30
2023-05-12T22:29:49.023Z,16.30
2023-05-12T22:32:16.451Z,11.00
2023-05-12T22:34:43.752Z,13.10
2023-05-12T22:37:11.113Z,15.43
2023-05-12T22:39:38.297Z,15.15
2023-05-12T22:42:06.528Z,14.30
2023-05-12T22:44:33.749Z,18.05
2023-05-12T22:47:03.289Z,16.95
2023-05-12T22:49:30.397Z,19.10
2023-05-12T22:51:57.662Z,16.30
2023-05-12T22:54:24.866Z,17.27
2023-05-12T22:56:52.122Z,14.85
2023-05-12T22:59:19.259Z,14.43
2023-05-12T23:01:46.618Z,16.45
2023-05-12T23:04:13.849Z,16.60
2023-05-12T23:06:41.317Z,14.35
2023-05-12T23:09:09.607Z,16.13
2023-05-12T23:11:36.690Z,17.17
2023-05-12T23:14:03.857Z,16.17
2023-05-12T23:16:31.052Z,14.18
2023-05-12T23:18:58.525Z,11.38
2023-05-12T23:21:25.974Z,13.27
2023-05-12T23:23:55.915Z,12.57
2023-05-12T23:26:23.227Z,14.70
2023-05-12T23:28:51.036Z,13.90
2023-05-12T23:31:18.424Z,21.33
2023-05-12T23:33:45.920Z,11.55
2023-05-12T23:36:14.028Z,13.93
2023-05-12T23:38:41.661Z,15.13
2023-05-12T23:41:09.079Z,12.85
2023-05-12T23:43:36.526Z,14.85
2023-05-12T23:46:04.141Z,13.23
2023-05-12T23:48:31.458Z,12.90
2023-05-12T23:50:58.660Z,15.32
2023-05-12T23:53:26.295Z,12.85
2023-05-12T23:55:53.685Z,18.30
2023-05-12T23:58:20.952Z,16.00
